BIHN

Hornafjordur  Airport

Hornafjordur, Iceland

BIHN 191700Z 36010KT CAVOK M02/M09 Q1022

Observed Flight Rules
Nov-19 @ 17:00 UTC (an hour ago)
 
Visual Flight Rules
Wind Visibility Clouds
360° at 10 knots 10,000+ meters
  • Clear skies
Temperatures Readings
Current -2°C / 28°F
Dewpoint -9°C / 16°F
Humidity 59%
Altimeter 30.18" Hg
Pressure 1022 hPa
Elevation 7
Observed Flight Rules
Nov-19 @ 17:00 UTC
(an hour ago)
 
VFR
Wind Visibility
360° at 10 knots 10,000+ meters
Clouds
  • Clear skies
Temperature Dewpoint
-2°C / 28°F -9°C / 16°F
Humidity Altimeter Pressure
59% 30.18" Hg 1022 hPa